sensor_id;sensor_type;location;lat;lon;timestamp;temperature;humidity
10089;DHT22;51898;49.864;8.550;2022-12-24T00:01:04;11.00;99.90
10089;DHT22;51898;49.864;8.550;2022-12-24T00:04:06;11.00;99.90
10089;DHT22;51898;49.864;8.550;2022-12-24T00:07:08;10.90;99.90
10089;DHT22;51898;49.864;8.550;2022-12-24T00:10:09;10.80;99.90
10089;DHT22;51898;49.864;8.550;2022-12-24T00:13:11;10.70;99.90
10089;DHT22;51898;49.864;8.550;2022-12-24T00:16:13;10.60;99.90
10089;DHT22;51898;49.864;8.550;2022-12-24T00:19:15;10.60;99.90
10089;DHT22;51898;49.864;8.550;2022-12-24T00:22:16;10.50;99.90
10089;DHT22;51898;49.864;8.550;2022-12-24T00:25:18;10.50;99.90
10089;DHT22;51898;49.864;8.550;2022-12-24T00:28:20;10.40;99.90
10089;DHT22;51898;49.864;8.550;2022-12-24T00:31:22;10.40;99.90
10089;DHT22;51898;49.864;8.550;2022-12-24T00:34:24;10.30;99.90
10089;DHT22;51898;49.864;8.550;2022-12-24T00:37:26;10.30;99.90
10089;DHT22;51898;49.864;8.550;2022-12-24T00:40:27;10.20;99.90
10089;DHT22;51898;49.864;8.550;2022-12-24T00:43:29;10.20;99.90
10089;DHT22;51898;49.864;8.550;2022-12-24T00:46:33;10.30;99.90
10089;DHT22;51898;49.864;8.550;2022-12-24T00:49:36;10.30;99.90
10089;DHT22;51898;49.864;8.550;2022-12-24T00:52:37;10.30;99.90
10089;DHT22;51898;49.864;8.550;2022-12-24T00:55:39;10.30;99.90
10089;DHT22;51898;49.864;8.550;2022-12-24T00:58:41;10.30;99.90
10089;DHT22;51898;49.864;8.550;2022-12-24T01:01:42;10.30;99.90
10089;DHT22;51898;49.864;8.550;2022-12-24T01:04:44;10.30;99.90
10089;DHT22;51898;49.864;8.550;2022-12-24T01:08:05;10.30;99.90
10089;DHT22;51898;49.864;8.550;2022-12-24T01:11:07;10.30;99.90
10089;DHT22;51898;49.864;8.550;2022-12-24T01:14:09;10.30;99.90
10089;DHT22;51898;49.864;8.550;2022-12-24T01:17:11;10.30;99.90
10089;DHT22;51898;49.864;8.550;2022-12-24T01:20:15;10.40;99.90
10089;DHT22;51898;49.864;8.550;2022-12-24T01:23:17;10.40;99.90
10089;DHT22;51898;49.864;8.550;2022-12-24T01:26:19;10.40;99.90
10089;DHT22;51898;49.864;8.550;2022-12-24T01:29:20;10.40;99.90
10089;DHT22;51898;49.864;8.550;2022-12-24T01:32:22;10.40;99.90
10089;DHT22;51898;49.864;8.550;2022-12-24T01:35:24;10.30;99.90
10089;DHT22;51898;49.864;8.550;2022-12-24T01:38:25;10.30;99.90
10089;DHT22;51898;49.864;8.550;2022-12-24T01:41:30;10.30;99.90
10089;DHT22;51898;49.864;8.550;2022-12-24T01:44:50;10.30;99.90
10089;DHT22;51898;49.864;8.550;2022-12-24T01:47:53;10.30;99.90
10089;DHT22;51898;49.864;8.550;2022-12-24T01:50:58;10.20;99.90
10089;DHT22;51898;49.864;8.550;2022-12-24T01:54:08;10.20;99.90
10089;DHT22;51898;49.864;8.550;2022-12-24T01:57:21;10.20;99.90
10089;DHT22;51898;49.864;8.550;2022-12-24T02:00:24;10.10;99.90
10089;DHT22;51898;49.864;8.550;2022-12-24T02:03:26;10.00;99.90
10089;DHT22;51898;49.864;8.550;2022-12-24T02:06:28;9.90;99.90
10089;DHT22;51898;49.864;8.550;2022-12-24T02:09:29;9.90;99.90
10089;DHT22;51898;49.864;8.550;2022-12-24T02:12:34;9.90;99.90
10089;DHT22;51898;49.864;8.550;2022-12-24T02:15:55;9.80;99.90
10089;DHT22;51898;49.864;8.550;2022-12-24T02:19:26;9.80;99.90
10089;DHT22;51898;49.864;8.550;2022-12-24T02:22:38;9.70;99.90
10089;DHT22;51898;49.864;8.550;2022-12-24T02:25:49;9.70;99.90
10089;DHT22;51898;49.864;8.550;2022-12-24T02:32:42;9.70;99.90
10089;DHT22;51898;49.864;8.550;2022-12-24T02:35:54;9.60;99.90
10089;DHT22;51898;49.864;8.550;2022-12-24T02:39:02;9.70;99.90
10089;DHT22;51898;49.864;8.550;2022-12-24T02:42:05;9.60;99.90
10089;DHT22;51898;49.864;8.550;2022-12-24T02:45:25;9.70;99.90
10089;DHT22;51898;49.864;8.550;2022-12-24T02:48:29;9.70;99.90
10089;DHT22;51898;49.864;8.550;2022-12-24T02:51:32;9.70;99.90
10089;DHT22;51898;49.864;8.550;2022-12-24T02:54:34;9.80;99.90
10089;DHT22;51898;49.864;8.550;2022-12-24T03:01:03;9.80;99.90
10089;DHT22;51898;49.864;8.550;2022-12-24T03:07:25;10.00;99.90
10089;DHT22;51898;49.864;8.550;2022-12-24T03:10:45;10.10;99.90
10089;DHT22;51898;49.864;8.550;2022-12-24T03:13:50;10.10;99.90
10089;DHT22;51898;49.864;8.550;2022-12-24T03:16:52;10.10;99.90
10089;DHT22;51898;49.864;8.550;2022-12-24T03:19:54;10.20;99.90
10089;DHT22;51898;49.864;8.550;2022-12-24T03:22:57;10.10;99.90
10089;DHT22;51898;49.864;8.550;2022-12-24T03:26:00;10.20;99.90
10089;DHT22;51898;49.864;8.550;2022-12-24T03:29:07;10.20;99.90
10089;DHT22;51898;49.864;8.550;2022-12-24T03:32:09;10.10;99.90
10089;DHT22;51898;49.864;8.550;2022-12-24T03:35:11;10.10;99.90
10089;DHT22;51898;49.864;8.550;2022-12-24T03:38:13;10.20;99.90
10089;DHT22;51898;49.864;8.550;2022-12-24T03:41:14;10.10;99.90
10089;DHT22;51898;49.864;8.550;2022-12-24T03:44:16;10.10;99.90
10089;DHT22;51898;49.864;8.550;2022-12-24T03:47:18;10.10;99.90
10089;DHT22;51898;49.864;8.550;2022-12-24T03:50:19;10.10;99.90
10089;DHT22;51898;49.864;8.550;2022-12-24T03:53:21;10.20;99.90
10089;DHT22;51898;49.864;8.550;2022-12-24T03:56:23;10.20;99.90
10089;DHT22;51898;49.864;8.550;2022-12-24T03:59:25;10.20;99.90
10089;DHT22;51898;49.864;8.550;2022-12-24T04:02:28;10.20;99.90
10089;DHT22;51898;49.864;8.550;2022-12-24T04:05:30;10.10;99.90
10089;DHT22;51898;49.864;8.550;2022-12-24T04:08:32;10.10;99.90
10089;DHT22;51898;49.864;8.550;2022-12-24T04:11:34;10.10;99.90
10089;DHT22;51898;49.864;8.550;2022-12-24T04:14:35;10.10;99.90
10089;DHT22;51898;49.864;8.550;2022-12-24T04:17:37;10.10;99.90
10089;DHT22;51898;49.864;8.550;2022-12-24T04:20:39;10.20;99.90
10089;DHT22;51898;49.864;8.550;2022-12-24T04:23:41;10.20;99.90
10089;DHT22;51898;49.864;8.550;2022-12-24T04:26:43;10.20;99.90
10089;DHT22;51898;49.864;8.550;2022-12-24T04:29:44;10.20;99.90
10089;DHT22;51898;49.864;8.550;2022-12-24T04:32:46;10.20;99.90
10089;DHT22;51898;49.864;8.550;2022-12-24T04:35:48;10.20;99.90
10089;DHT22;51898;49.864;8.550;2022-12-24T04:38:49;10.20;99.90
10089;DHT22;51898;49.864;8.550;2022-12-24T04:41:51;10.10;99.90
10089;DHT22;51898;49.864;8.550;2022-12-24T04:44:52;10.10;99.90
10089;DHT22;51898;49.864;8.550;2022-12-24T04:47:54;10.00;99.90
10089;DHT22;51898;49.864;8.550;2022-12-24T04:50:56;9.90;99.90
10089;DHT22;51898;49.864;8.550;2022-12-24T04:53:57;10.00;99.90
10089;DHT22;51898;49.864;8.550;2022-12-24T04:56:59;9.90;99.90
10089;DHT22;51898;49.864;8.550;2022-12-24T05:00:03;9.80;99.90
10089;DHT22;51898;49.864;8.550;2022-12-24T05:03:04;9.90;99.90
10089;DHT22;51898;49.864;8.550;2022-12-24T05:06:09;9.80;99.90
10089;DHT22;51898;49.864;8.550;2022-12-24T05:09:11;9.80;99.90
10089;DHT22;51898;49.864;8.550;2022-12-24T05:12:13;9.80;99.90
10089;DHT22;51898;49.864;8.550;2022-12-24T05:15:15;9.80;99.90
10089;DHT22;51898;49.864;8.550;2022-12-24T05:18:17;9.80;99.90
10089;DHT22;51898;49.864;8.550;2022-12-24T05:21:22;9.80;99.90
10089;DHT22;51898;49.864;8.550;2022-12-24T05:24:23;9.80;99.90
10089;DHT22;51898;49.864;8.550;2022-12-24T05:27:44;9.80;99.90
10089;DHT22;51898;49.864;8.550;2022-12-24T05:30:51;9.80;99.90
10089;DHT22;51898;49.864;8.550;2022-12-24T05:33:53;9.80;99.90
10089;DHT22;51898;49.864;8.550;2022-12-24T05:36:55;9.80;99.90
10089;DHT22;51898;49.864;8.550;2022-12-24T05:39:56;9.90;99.90
10089;DHT22;51898;49.864;8.550;2022-12-24T05:42:58;9.90;99.90
10089;DHT22;51898;49.864;8.550;2022-12-24T05:46:01;9.90;99.90
10089;DHT22;51898;49.864;8.550;2022-12-24T05:49:04;9.90;99.90
10089;DHT22;51898;49.864;8.550;2022-12-24T05:52:05;9.90;99.90
10089;DHT22;51898;49.864;8.550;2022-12-24T05:55:07;10.00;99.90
10089;DHT22;51898;49.864;8.550;2022-12-24T05:58:09;10.00;99.90
10089;DHT22;51898;49.864;8.550;2022-12-24T06:01:12;9.90;99.90
10089;DHT22;51898;49.864;8.550;2022-12-24T06:04:14;10.00;99.90
10089;DHT22;51898;49.864;8.550;2022-12-24T06:07:16;10.00;99.90
10089;DHT22;51898;49.864;8.550;2022-12-24T06:10:18;10.00;99.90
10089;DHT22;51898;49.864;8.550;2022-12-24T06:13:19;10.00;99.90
10089;DHT22;51898;49.864;8.550;2022-12-24T06:16:22;10.00;99.90
10089;DHT22;51898;49.864;8.550;2022-12-24T06:19:24;10.00;99.90
10089;DHT22;51898;49.864;8.550;2022-12-24T06:22:26;10.00;99.90
10089;DHT22;51898;49.864;8.550;2022-12-24T06:25:27;10.00;99.90
10089;DHT22;51898;49.864;8.550;2022-12-24T06:28:30;10.00;99.90
10089;DHT22;51898;49.864;8.550;2022-12-24T06:31:32;10.00;99.90
10089;DHT22;51898;49.864;8.550;2022-12-24T06:34:34;9.90;99.90
10089;DHT22;51898;49.864;8.550;2022-12-24T06:37:36;9.90;99.90
10089;DHT22;51898;49.864;8.550;2022-12-24T06:40:38;9.80;99.90
10089;DHT22;51898;49.864;8.550;2022-12-24T06:43:44;9.80;99.90
10089;DHT22;51898;49.864;8.550;2022-12-24T06:46:46;9.80;99.90
10089;DHT22;51898;49.864;8.550;2022-12-24T06:49:48;9.80;99.90
10089;DHT22;51898;49.864;8.550;2022-12-24T06:52:49;9.70;99.90
10089;DHT22;51898;49.864;8.550;2022-12-24T06:55:51;9.60;99.90
10089;DHT22;51898;49.864;8.550;2022-12-24T06:58:52;9.60;99.90
10089;DHT22;51898;49.864;8.550;2022-12-24T07:01:58;9.60;99.90
10089;DHT22;51898;49.864;8.550;2022-12-24T07:04:59;9.70;99.90
10089;DHT22;51898;49.864;8.550;2022-12-24T07:08:01;9.80;99.90
10089;DHT22;51898;49.864;8.550;2022-12-24T07:11:03;9.90;99.90
10089;DHT22;51898;49.864;8.550;2022-12-24T07:14:04;9.90;99.90
10089;DHT22;51898;49.864;8.550;2022-12-24T07:17:06;9.90;99.90
10089;DHT22;51898;49.864;8.550;2022-12-24T07:20:14;10.00;99.90
10089;DHT22;51898;49.864;8.550;2022-12-24T07:23:16;10.00;99.90
10089;DHT22;51898;49.864;8.550;2022-12-24T07:26:17;10.00;99.90
10089;DHT22;51898;49.864;8.550;2022-12-24T07:29:19;10.10;99.90
10089;DHT22;51898;49.864;8.550;2022-12-24T07:32:21;10.10;99.90
10089;DHT22;51898;49.864;8.550;2022-12-24T07:35:22;10.20;99.90
10089;DHT22;51898;49.864;8.550;2022-12-24T07:38:24;10.20;99.90
10089;DHT22;51898;49.864;8.550;2022-12-24T07:41:26;10.10;99.90
10089;DHT22;51898;49.864;8.550;2022-12-24T07:44:27;10.10;99.90
10089;DHT22;51898;49.864;8.550;2022-12-24T07:47:29;10.10;99.90
10089;DHT22;51898;49.864;8.550;2022-12-24T07:50:31;10.10;99.90
10089;DHT22;51898;49.864;8.550;2022-12-24T07:53:32;10.10;99.90
10089;DHT22;51898;49.864;8.550;2022-12-24T07:56:34;10.10;99.90
10089;DHT22;51898;49.864;8.550;2022-12-24T07:59:35;10.10;99.90
10089;DHT22;51898;49.864;8.550;2022-12-24T08:02:39;10.20;99.90
10089;DHT22;51898;49.864;8.550;2022-12-24T08:05:41;10.20;99.90
10089;DHT22;51898;49.864;8.550;2022-12-24T08:08:43;10.20;99.90
10089;DHT22;51898;49.864;8.550;2022-12-24T08:11:45;10.20;99.90
10089;DHT22;51898;49.864;8.550;2022-12-24T08:14:52;10.20;99.90
10089;DHT22;51898;49.864;8.550;2022-12-24T08:17:54;10.30;99.90
10089;DHT22;51898;49.864;8.550;2022-12-24T08:20:56;10.20;99.90
10089;DHT22;51898;49.864;8.550;2022-12-24T08:23:57;10.20;99.90
10089;DHT22;51898;49.864;8.550;2022-12-24T08:26:59;10.30;99.90
10089;DHT22;51898;49.864;8.550;2022-12-24T08:30:01;10.30;99.90
10089;DHT22;51898;49.864;8.550;2022-12-24T08:33:03;10.30;99.90
10089;DHT22;51898;49.864;8.550;2022-12-24T08:36:05;10.30;99.90
10089;DHT22;51898;49.864;8.550;2022-12-24T08:39:07;10.30;99.90
10089;DHT22;51898;49.864;8.550;2022-12-24T08:42:11;10.30;99.90
10089;DHT22;51898;49.864;8.550;2022-12-24T08:45:13;10.30;99.90
10089;DHT22;51898;49.864;8.550;2022-12-24T08:48:15;10.30;99.90
10089;DHT22;51898;49.864;8.550;2022-12-24T08:51:17;10.40;99.90
10089;DHT22;51898;49.864;8.550;2022-12-24T08:54:19;10.50;99.90
10089;DHT22;51898;49.864;8.550;2022-12-24T08:57:23;10.50;99.90
10089;DHT22;51898;49.864;8.550;2022-12-24T09:00:25;10.60;99.90
10089;DHT22;51898;49.864;8.550;2022-12-24T09:03:26;10.60;99.90
10089;DHT22;51898;49.864;8.550;2022-12-24T09:06:30;10.60;99.90
10089;DHT22;51898;49.864;8.550;2022-12-24T09:09:32;10.60;99.90
10089;DHT22;51898;49.864;8.550;2022-12-24T09:12:38;10.60;99.90
10089;DHT22;51898;49.864;8.550;2022-12-24T09:15:40;10.60;99.90
10089;DHT22;51898;49.864;8.550;2022-12-24T09:18:42;10.60;99.90
10089;DHT22;51898;49.864;8.550;2022-12-24T09:21:43;10.60;99.90
10089;DHT22;51898;49.864;8.550;2022-12-24T09:24:45;10.60;99.90
10089;DHT22;51898;49.864;8.550;2022-12-24T09:27:47;10.60;99.90
10089;DHT22;51898;49.864;8.550;2022-12-24T09:30:59;10.70;99.90
10089;DHT22;51898;49.864;8.550;2022-12-24T09:34:01;10.70;99.90
10089;DHT22;51898;49.864;8.550;2022-12-24T09:37:03;10.70;99.90
10089;DHT22;51898;49.864;8.550;2022-12-24T09:40:05;10.70;99.90
10089;DHT22;51898;49.864;8.550;2022-12-24T09:43:17;10.80;99.90
10089;DHT22;51898;49.864;8.550;2022-12-24T09:46:24;10.90;99.90
10089;DHT22;51898;49.864;8.550;2022-12-24T09:49:38;11.00;99.90
10089;DHT22;51898;49.864;8.550;2022-12-24T09:52:42;11.10;99.90
10089;DHT22;51898;49.864;8.550;2022-12-24T09:55:48;11.10;99.90
10089;DHT22;51898;49.864;8.550;2022-12-24T09:58:57;11.20;99.90
10089;DHT22;51898;49.864;8.550;2022-12-24T10:02:00;11.20;99.90
10089;DHT22;51898;49.864;8.550;2022-12-24T10:05:02;11.30;99.90
10089;DHT22;51898;49.864;8.550;2022-12-24T10:08:29;11.40;99.90
10089;DHT22;51898;49.864;8.550;2022-12-24T10:15:27;11.40;99.90
10089;DHT22;51898;49.864;8.550;2022-12-24T10:22:22;11.50;99.90
10089;DHT22;51898;49.864;8.550;2022-12-24T10:29:11;11.60;99.90
10089;DHT22;51898;49.864;8.550;2022-12-24T10:32:27;11.60;99.90
10089;DHT22;51898;49.864;8.550;2022-12-24T10:35:35;11.70;99.90
10089;DHT22;51898;49.864;8.550;2022-12-24T10:38:39;11.90;99.90
10089;DHT22;51898;49.864;8.550;2022-12-24T10:41:41;12.00;99.90
10089;DHT22;51898;49.864;8.550;2022-12-24T10:44:46;12.00;99.90
10089;DHT22;51898;49.864;8.550;2022-12-24T10:47:54;12.10;99.90
10089;DHT22;51898;49.864;8.550;2022-12-24T10:50:59;12.10;99.90
10089;DHT22;51898;49.864;8.550;2022-12-24T10:54:17;12.20;99.90
10089;DHT22;51898;49.864;8.550;2022-12-24T10:57:27;12.30;99.90
10089;DHT22;51898;49.864;8.550;2022-12-24T11:00:29;12.50;99.90
10089;DHT22;51898;49.864;8.550;2022-12-24T11:03:37;12.60;99.90
10089;DHT22;51898;49.864;8.550;2022-12-24T11:06:59;12.70;99.90
10089;DHT22;51898;49.864;8.550;2022-12-24T11:10:04;12.70;99.90
10089;DHT22;51898;49.864;8.550;2022-12-24T11:13:23;12.70;99.90
10089;DHT22;51898;49.864;8.550;2022-12-24T11:16:39;12.70;99.90
10089;DHT22;51898;49.864;8.550;2022-12-24T11:19:47;12.70;99.90
10089;DHT22;51898;49.864;8.550;2022-12-24T11:22:49;12.70;99.90
10089;DHT22;51898;49.864;8.550;2022-12-24T11:25:51;12.50;99.90
10089;DHT22;51898;49.864;8.550;2022-12-24T11:29:18;12.30;99.90
10089;DHT22;51898;49.864;8.550;2022-12-24T11:32:21;12.20;99.90
10089;DHT22;51898;49.864;8.550;2022-12-24T11:35:23;12.10;99.90
10089;DHT22;51898;49.864;8.550;2022-12-24T11:38:27;12.00;99.90
10089;DHT22;51898;49.864;8.550;2022-12-24T11:41:36;11.90;99.90
10089;DHT22;51898;49.864;8.550;2022-12-24T11:44:46;11.90;99.90
10089;DHT22;51898;49.864;8.550;2022-12-24T11:47:49;12.00;99.90
10089;DHT22;51898;49.864;8.550;2022-12-24T11:51:18;12.40;99.90
10089;DHT22;51898;49.864;8.550;2022-12-24T11:54:27;12.70;99.90
10089;DHT22;51898;49.864;8.550;2022-12-24T11:57:46;12.90;99.90
10089;DHT22;51898;49.864;8.550;2022-12-24T12:00:51;12.80;99.90
10089;DHT22;51898;49.864;8.550;2022-12-24T12:04:09;12.70;99.90
10089;DHT22;51898;49.864;8.550;2022-12-24T12:07:19;12.50;99.90
10089;DHT22;51898;49.864;8.550;2022-12-24T12:10:26;12.40;99.90
10089;DHT22;51898;49.864;8.550;2022-12-24T12:13:30;12.30;99.90
10089;DHT22;51898;49.864;8.550;2022-12-24T12:16:57;12.20;99.90
10089;DHT22;51898;49.864;8.550;2022-12-24T12:20:31;12.10;99.90
10089;DHT22;51898;49.864;8.550;2022-12-24T12:23:36;12.10;99.90
10089;DHT22;51898;49.864;8.550;2022-12-24T12:26:40;12.10;99.90
10089;DHT22;51898;49.864;8.550;2022-12-24T12:29:48;11.90;99.90
10089;DHT22;51898;49.864;8.550;2022-12-24T12:33:21;11.90;99.90
10089;DHT22;51898;49.864;8.550;2022-12-24T12:36:53;12.10;99.90
10089;DHT22;51898;49.864;8.550;2022-12-24T12:39:57;12.10;99.90
10089;DHT22;51898;49.864;8.550;2022-12-24T12:43:26;12.10;99.90
10089;DHT22;51898;49.864;8.550;2022-12-24T12:46:55;12.10;99.90
10089;DHT22;51898;49.864;8.550;2022-12-24T12:56:33;12.20;99.90
10089;DHT22;51898;49.864;8.550;2022-12-24T12:59:47;12.30;99.90
10089;DHT22;51898;49.864;8.550;2022-12-24T13:06:57;12.30;99.90
10089;DHT22;51898;49.864;8.550;2022-12-24T13:13:55;12.00;99.90
10089;DHT22;51898;49.864;8.550;2022-12-24T13:20:39;11.90;99.90
10089;DHT22;51898;49.864;8.550;2022-12-24T13:23:42;11.80;99.90
10089;DHT22;51898;49.864;8.550;2022-12-24T13:27:10;11.80;99.90
10089;DHT22;51898;49.864;8.550;2022-12-24T13:37:03;11.80;99.90
10089;DHT22;51898;49.864;8.550;2022-12-24T13:43:07;11.50;99.90
10089;DHT22;51898;49.864;8.550;2022-12-24T13:49:52;11.40;99.90
10089;DHT22;51898;49.864;8.550;2022-12-24T13:52:54;11.40;99.90
10089;DHT22;51898;49.864;8.550;2022-12-24T13:56:06;11.50;99.90
10089;DHT22;51898;49.864;8.550;2022-12-24T13:59:33;11.50;99.90
10089;DHT22;51898;49.864;8.550;2022-12-24T14:02:56;11.50;99.90
10089;DHT22;51898;49.864;8.550;2022-12-24T14:06:08;11.50;99.90
10089;DHT22;51898;49.864;8.550;2022-12-24T14:09:14;11.60;99.90
10089;DHT22;51898;49.864;8.550;2022-12-24T14:12:33;11.60;99.90
10089;DHT22;51898;49.864;8.550;2022-12-24T14:18:57;11.70;99.90
10089;DHT22;51898;49.864;8.550;2022-12-24T14:25:16;11.60;99.90
10089;DHT22;51898;49.864;8.550;2022-12-24T14:28:22;11.60;99.90
10089;DHT22;51898;49.864;8.550;2022-12-24T14:31:25;11.50;99.90
10089;DHT22;51898;49.864;8.550;2022-12-24T14:34:27;11.50;99.90
10089;DHT22;51898;49.864;8.550;2022-12-24T14:37:31;11.40;99.90
10089;DHT22;51898;49.864;8.550;2022-12-24T14:54:41;11.10;99.90
10089;DHT22;51898;49.864;8.550;2022-12-24T14:57:43;11.10;99.90
10089;DHT22;51898;49.864;8.550;2022-12-24T15:00:45;11.10;99.90
10089;DHT22;51898;49.864;8.550;2022-12-24T15:04:03;11.10;99.90
10089;DHT22;51898;49.864;8.550;2022-12-24T15:07:05;11.00;99.90
10089;DHT22;51898;49.864;8.550;2022-12-24T15:10:21;11.00;99.90
10089;DHT22;51898;49.864;8.550;2022-12-24T15:13:35;10.90;99.90
10089;DHT22;51898;49.864;8.550;2022-12-24T15:16:38;10.90;99.90
10089;DHT22;51898;49.864;8.550;2022-12-24T15:19:42;10.90;99.90
10089;DHT22;51898;49.864;8.550;2022-12-24T15:22:49;10.80;99.90
10089;DHT22;51898;49.864;8.550;2022-12-24T15:25:51;10.80;99.90
10089;DHT22;51898;49.864;8.550;2022-12-24T15:29:24;10.70;99.90
10089;DHT22;51898;49.864;8.550;2022-12-24T15:32:26;10.70;99.90
10089;DHT22;51898;49.864;8.550;2022-12-24T15:35:29;10.70;99.90
10089;DHT22;51898;49.864;8.550;2022-12-24T15:38:39;10.70;99.90
10089;DHT22;51898;49.864;8.550;2022-12-24T15:41:44;10.70;99.90
10089;DHT22;51898;49.864;8.550;2022-12-24T15:45:06;10.60;99.90
10089;DHT22;51898;49.864;8.550;2022-12-24T15:48:10;10.60;99.90
10089;DHT22;51898;49.864;8.550;2022-12-24T15:51:23;10.50;99.90
10089;DHT22;51898;49.864;8.550;2022-12-24T15:54:25;10.50;99.90
10089;DHT22;51898;49.864;8.550;2022-12-24T15:57:32;10.50;99.90
10089;DHT22;51898;49.864;8.550;2022-12-24T16:00:34;10.40;99.90
10089;DHT22;51898;49.864;8.550;2022-12-24T16:03:40;10.40;99.90
10089;DHT22;51898;49.864;8.550;2022-12-24T16:06:59;10.40;99.90
10089;DHT22;51898;49.864;8.550;2022-12-24T16:10:23;10.40;99.90
10089;DHT22;51898;49.864;8.550;2022-12-24T16:13:28;10.30;99.90
10089;DHT22;51898;49.864;8.550;2022-12-24T16:16:39;10.30;99.90
10089;DHT22;51898;49.864;8.550;2022-12-24T16:19:46;10.40;99.90
10089;DHT22;51898;49.864;8.550;2022-12-24T16:22:49;10.40;99.90
10089;DHT22;51898;49.864;8.550;2022-12-24T16:25:51;10.40;99.90
10089;DHT22;51898;49.864;8.550;2022-12-24T16:28:54;10.40;99.90
10089;DHT22;51898;49.864;8.550;2022-12-24T16:31:57;10.40;99.90
10089;DHT22;51898;49.864;8.550;2022-12-24T16:35:01;10.40;99.90
10089;DHT22;51898;49.864;8.550;2022-12-24T16:38:03;10.40;99.90
10089;DHT22;51898;49.864;8.550;2022-12-24T16:41:05;10.40;99.90
10089;DHT22;51898;49.864;8.550;2022-12-24T16:44:07;10.40;99.90
10089;DHT22;51898;49.864;8.550;2022-12-24T16:47:13;10.40;99.90
10089;DHT22;51898;49.864;8.550;2022-12-24T16:50:15;10.40;99.90
10089;DHT22;51898;49.864;8.550;2022-12-24T16:53:19;10.50;99.90
10089;DHT22;51898;49.864;8.550;2022-12-24T16:56:21;10.40;99.90
10089;DHT22;51898;49.864;8.550;2022-12-24T16:59:23;10.40;99.90
10089;DHT22;51898;49.864;8.550;2022-12-24T17:02:25;10.30;99.90
10089;DHT22;51898;49.864;8.550;2022-12-24T17:05:27;10.30;99.90
10089;DHT22;51898;49.864;8.550;2022-12-24T17:08:29;10.30;99.90
10089;DHT22;51898;49.864;8.550;2022-12-24T17:11:30;10.30;99.90
10089;DHT22;51898;49.864;8.550;2022-12-24T17:14:32;10.30;99.90
10089;DHT22;51898;49.864;8.550;2022-12-24T17:17:35;10.30;99.90
10089;DHT22;51898;49.864;8.550;2022-12-24T17:20:37;10.20;99.90
10089;DHT22;51898;49.864;8.550;2022-12-24T17:23:41;10.30;99.90
10089;DHT22;51898;49.864;8.550;2022-12-24T17:26:43;10.20;99.90
10089;DHT22;51898;49.864;8.550;2022-12-24T17:29:45;10.20;99.90
10089;DHT22;51898;49.864;8.550;2022-12-24T17:32:47;10.20;99.90
10089;DHT22;51898;49.864;8.550;2022-12-24T17:35:48;10.20;99.90
10089;DHT22;51898;49.864;8.550;2022-12-24T17:38:52;10.20;99.90
10089;DHT22;51898;49.864;8.550;2022-12-24T17:41:56;10.20;99.90
10089;DHT22;51898;49.864;8.550;2022-12-24T17:44:57;10.20;99.90
10089;DHT22;51898;49.864;8.550;2022-12-24T17:48:00;10.20;99.90
10089;DHT22;51898;49.864;8.550;2022-12-24T17:51:04;10.10;99.90
10089;DHT22;51898;49.864;8.550;2022-12-24T17:54:06;10.10;99.90
10089;DHT22;51898;49.864;8.550;2022-12-24T17:57:07;10.10;99.90
10089;DHT22;51898;49.864;8.550;2022-12-24T18:00:09;10.10;99.90
10089;DHT22;51898;49.864;8.550;2022-12-24T18:03:12;10.10;99.90
10089;DHT22;51898;49.864;8.550;2022-12-24T18:06:18;10.10;99.90
10089;DHT22;51898;49.864;8.550;2022-12-24T18:09:21;10.10;99.90
10089;DHT22;51898;49.864;8.550;2022-12-24T18:12:23;10.10;99.90
10089;DHT22;51898;49.864;8.550;2022-12-24T18:15:27;10.10;99.90
10089;DHT22;51898;49.864;8.550;2022-12-24T18:18:32;10.10;99.90
10089;DHT22;51898;49.864;8.550;2022-12-24T18:21:34;10.10;99.90
10089;DHT22;51898;49.864;8.550;2022-12-24T18:24:35;10.00;99.90
10089;DHT22;51898;49.864;8.550;2022-12-24T18:27:37;10.00;99.90
10089;DHT22;51898;49.864;8.550;2022-12-24T18:30:39;10.00;99.90
10089;DHT22;51898;49.864;8.550;2022-12-24T18:33:41;10.00;99.90
10089;DHT22;51898;49.864;8.550;2022-12-24T18:36:43;10.00;99.90
10089;DHT22;51898;49.864;8.550;2022-12-24T18:39:51;10.00;99.90
10089;DHT22;51898;49.864;8.550;2022-12-24T18:42:53;10.00;99.90
10089;DHT22;51898;49.864;8.550;2022-12-24T18:45:55;10.00;99.90
10089;DHT22;51898;49.864;8.550;2022-12-24T18:48:58;10.00;99.90
10089;DHT22;51898;49.864;8.550;2022-12-24T18:52:08;9.90;99.90
10089;DHT22;51898;49.864;8.550;2022-12-24T18:55:10;9.90;99.90
10089;DHT22;51898;49.864;8.550;2022-12-24T18:58:12;9.90;99.90
10089;DHT22;51898;49.864;8.550;2022-12-24T19:01:20;9.80;99.90
10089;DHT22;51898;49.864;8.550;2022-12-24T19:04:22;9.80;99.90
10089;DHT22;51898;49.864;8.550;2022-12-24T19:07:23;9.80;99.90
10089;DHT22;51898;49.864;8.550;2022-12-24T19:10:25;9.70;99.90
10089;DHT22;51898;49.864;8.550;2022-12-24T19:13:27;9.70;99.90
10089;DHT22;51898;49.864;8.550;2022-12-24T19:16:31;9.70;99.90
10089;DHT22;51898;49.864;8.550;2022-12-24T19:19:33;9.70;99.90
10089;DHT22;51898;49.864;8.550;2022-12-24T19:22:35;9.70;99.90
10089;DHT22;51898;49.864;8.550;2022-12-24T19:25:37;9.70;99.90
10089;DHT22;51898;49.864;8.550;2022-12-24T19:28:39;9.70;99.90
10089;DHT22;51898;49.864;8.550;2022-12-24T19:31:41;9.70;99.90
10089;DHT22;51898;49.864;8.550;2022-12-24T19:34:44;9.70;99.90
10089;DHT22;51898;49.864;8.550;2022-12-24T19:37:46;9.70;99.90
10089;DHT22;51898;49.864;8.550;2022-12-24T19:40:48;9.70;99.90
10089;DHT22;51898;49.864;8.550;2022-12-24T19:43:51;9.70;99.90
10089;DHT22;51898;49.864;8.550;2022-12-24T19:46:53;9.70;99.90
10089;DHT22;51898;49.864;8.550;2022-12-24T19:49:55;9.70;99.90
10089;DHT22;51898;49.864;8.550;2022-12-24T19:52:57;9.80;99.90
10089;DHT22;51898;49.864;8.550;2022-12-24T19:55:59;9.70;99.90
10089;DHT22;51898;49.864;8.550;2022-12-24T19:59:01;9.80;99.90
10089;DHT22;51898;49.864;8.550;2022-12-24T20:02:03;9.80;99.90
10089;DHT22;51898;49.864;8.550;2022-12-24T20:05:05;9.70;99.90
10089;DHT22;51898;49.864;8.550;2022-12-24T20:08:07;9.80;99.90
10089;DHT22;51898;49.864;8.550;2022-12-24T20:11:11;9.70;99.90
10089;DHT22;51898;49.864;8.550;2022-12-24T20:14:13;9.70;99.90
10089;DHT22;51898;49.864;8.550;2022-12-24T20:17:15;9.70;99.90
10089;DHT22;51898;49.864;8.550;2022-12-24T20:20:17;9.70;99.90
10089;DHT22;51898;49.864;8.550;2022-12-24T20:23:19;9.70;99.90
10089;DHT22;51898;49.864;8.550;2022-12-24T20:26:23;9.70;99.90
10089;DHT22;51898;49.864;8.550;2022-12-24T20:29:25;9.60;99.90
10089;DHT22;51898;49.864;8.550;2022-12-24T20:32:27;9.60;99.90
10089;DHT22;51898;49.864;8.550;2022-12-24T20:35:33;9.60;99.90
10089;DHT22;51898;49.864;8.550;2022-12-24T20:38:35;9.70;99.90
10089;DHT22;51898;49.864;8.550;2022-12-24T20:41:37;9.60;99.90
10089;DHT22;51898;49.864;8.550;2022-12-24T20:44:39;9.60;99.90
10089;DHT22;51898;49.864;8.550;2022-12-24T20:47:40;9.60;99.90